Time;durP1;ratioP1;P1;durP2;ratioP2;P2;SDS_P1;SDS_P2;PMS_P1;PMS_P2;Temp;Humidity;BMP_temperature;BMP_pressure;BME280_temperature;BME280_humidity;BME280_pressure;Samples;Min_cycle;Max_cycle;Signal;HPM_P1;HPM_P2
2021/05/14 00:01:26;;;;;;;24.52;19.38;;;8.30;91.50;;;;;;5017953;28;20050;-82
2021/05/14 00:03:52;;;;;;;24.70;18.13;;;8.30;91.50;;;;;;5046817;28;20033;-80
2021/05/14 00:06:18;;;;;;;22.80;17.73;;;8.30;91.50;;;;;;5028698;28;20032;-81
2021/05/14 00:08:45;;;;;;;20.90;17.85;;;8.30;91.40;;;;;;5037248;28;20040;-80
2021/05/14 00:11:11;;;;;;;21.80;17.60;;;8.30;91.40;;;;;;5015456;28;20579;-81
2021/05/14 00:13:37;;;;;;;21.15;17.10;;;8.30;91.50;;;;;;5004645;28;20235;-83
2021/05/14 00:16:04;;;;;;;22.90;17.50;;;8.30;91.60;;;;;;5025521;28;20123;-82
2021/05/14 00:18:33;;;;;;;21.95;17.88;;;8.30;91.70;;;;;;5035296;28;20036;-82
2021/05/14 00:20:58;;;;;;;23.35;17.13;;;8.30;91.80;;;;;;5025472;28;20419;-80
2021/05/14 00:23:24;;;;;;;22.20;17.10;;;8.20;91.80;;;;;;5041641;28;20068;-81
2021/05/14 00:25:50;;;;;;;23.42;18.23;;;8.20;91.90;;;;;;5018509;28;20048;-83
2021/05/14 00:28:16;;;;;;;24.05;17.83;;;8.20;91.90;;;;;;5012346;28;20040;-79
2021/05/14 00:30:41;;;;;;;21.73;17.27;;;8.20;91.90;;;;;;5021734;28;20059;-83
2021/05/14 00:33:07;;;;;;;20.25;15.60;;;8.20;91.90;;;;;;5017389;28;20204;-82
2021/05/14 00:35:33;;;;;;;21.67;17.52;;;8.20;92.00;;;;;;5035550;28;20394;-79
2021/05/14 00:37:59;;;;;;;22.42;16.83;;;8.20;91.80;;;;;;5018737;28;20093;-83
2021/05/14 00:40:25;;;;;;;22.27;16.42;;;8.20;91.80;;;;;;4999873;28;20927;-82
2021/05/14 00:42:51;;;;;;;22.45;17.45;;;8.20;91.80;;;;;;5017480;28;20037;-82
2021/05/14 00:45:16;;;;;;;23.55;18.75;;;8.20;91.70;;;;;;5016035;28;20037;-82
2021/05/14 00:47:43;;;;;;;22.58;18.25;;;8.20;91.70;;;;;;5019472;28;20098;-82
2021/05/14 00:50:10;;;;;;;22.05;16.50;;;8.20;91.70;;;;;;5018660;28;20037;-81
2021/05/14 00:52:36;;;;;;;24.60;18.50;;;8.20;91.70;;;;;;5038359;28;20044;-83
2021/05/14 00:55:02;;;;;;;21.00;17.13;;;8.30;91.70;;;;;;5032451;28;20395;-82
2021/05/14 00:57:30;;;;;;;20.02;15.30;;;8.30;91.90;;;;;;5027621;28;20412;-82
2021/05/14 00:59:56;;;;;;;20.48;16.48;;;8.20;91.80;;;;;;5043213;28;20482;-82
2021/05/14 01:02:21;;;;;;;21.55;16.02;;;8.20;91.90;;;;;;5027439;28;20032;-83
2021/05/14 01:04:48;;;;;;;21.98;16.73;;;8.20;91.90;;;;;;5044906;28;20120;-82
2021/05/14 01:07:14;;;;;;;21.40;16.23;;;8.20;91.90;;;;;;5039259;28;20068;-81
2021/05/14 01:09:42;;;;;;;21.25;16.63;;;8.20;91.90;;;;;;5028139;28;20033;-82
2021/05/14 01:12:09;;;;;;;25.38;17.70;;;8.20;91.90;;;;;;5041795;28;20041;-82
2021/05/14 01:14:36;;;;;;;21.55;17.23;;;8.30;92.20;;;;;;5030783;28;20040;-82
2021/05/14 01:17:02;;;;;;;25.17;17.95;;;8.20;92.00;;;;;;5035670;28;20068;-82
2021/05/14 01:19:28;;;;;;;27.73;17.42;;;8.30;92.00;;;;;;5042937;28;20162;-82
2021/05/14 01:21:54;;;;;;;20.23;16.08;;;8.20;91.90;;;;;;5045295;28;20062;-82
2021/05/14 01:24:20;;;;;;;21.30;17.23;;;8.20;91.90;;;;;;5031280;28;20040;-82
2021/05/14 01:26:45;;;;;;;24.38;17.08;;;8.20;92.00;;;;;;5040785;28;20040;-82
2021/05/14 01:29:12;;;;;;;23.77;17.42;;;8.20;92.10;;;;;;5049117;28;20033;-81
2021/05/14 01:31:40;;;;;;;23.27;17.05;;;8.20;92.40;;;;;;5063459;28;20332;-81
2021/05/14 01:34:07;;;;;;;23.83;18.17;;;8.20;92.10;;;;;;5051427;28;20049;-82
2021/05/14 01:36:39;;;;;;;24.00;17.42;;;8.20;92.10;;;;;;5042337;28;20063;-81
2021/05/14 01:39:06;;;;;;;23.45;17.13;;;8.30;92.20;;;;;;5021178;28;20029;-83
2021/05/14 01:41:32;;;;;;;21.70;16.45;;;8.30;92.30;;;;;;5038311;28;20593;-81
2021/05/14 01:43:58;;;;;;;24.17;17.58;;;8.30;92.20;;;;;;5041216;28;20518;-81
2021/05/14 01:46:24;;;;;;;23.77;16.48;;;8.30;92.20;;;;;;5037873;28;20072;-82
2021/05/14 01:48:50;;;;;;;21.95;17.23;;;8.30;92.50;;;;;;5006677;28;20043;-82
2021/05/14 01:51:17;;;;;;;23.92;15.88;;;8.30;92.40;;;;;;5034666;28;20501;-81
2021/05/14 01:53:44;;;;;;;19.88;15.52;;;8.20;92.40;;;;;;5037798;28;20094;-82
2021/05/14 01:56:09;;;;;;;18.65;14.55;;;8.30;92.40;;;;;;5022455;28;20484;-82
2021/05/14 01:58:36;;;;;;;20.02;15.32;;;8.30;92.60;;;;;;5047766;28;20066;-81
2021/05/14 02:01:02;;;;;;;18.98;15.25;;;8.20;92.40;;;;;;5032069;28;20325;-82
2021/05/14 02:03:28;;;;;;;19.95;14.70;;;8.30;92.40;;;;;;5050025;28;20531;-82
2021/05/14 02:05:54;;;;;;;18.05;13.80;;;8.20;92.40;;;;;;5045506;28;20171;-81
2021/05/14 02:08:20;;;;;;;19.42;12.75;;;8.30;92.50;;;;;;5043436;28;20033;-83
2021/05/14 02:10:46;;;;;;;19.75;13.93;;;8.20;92.50;;;;;;5042431;28;20512;-82
2021/05/14 02:13:12;;;;;;;15.32;12.75;;;8.20;92.60;;;;;;5010912;28;20123;-82
2021/05/14 02:15:39;;;;;;;16.85;13.30;;;8.20;92.50;;;;;;5042682;28;20067;-82
2021/05/14 02:18:05;;;;;;;17.05;13.02;;;8.20;92.60;;;;;;5022672;28;20072;-81
2021/05/14 02:20:39;;;;;;;17.90;13.00;;;8.20;92.50;;;;;;5030403;28;20098;-82
2021/05/14 02:23:07;;;;;;;19.42;15.05;;;8.20;92.50;;;;;;5041126;28;20032;-82
2021/05/14 02:25:33;;;;;;;17.52;13.88;;;8.20;92.80;;;;;;5022661;28;20056;-82
2021/05/14 02:27:59;;;;;;;18.13;14.60;;;8.20;92.40;;;;;;5040222;28;21513;-81
2021/05/14 02:30:28;;;;;;;17.95;14.38;;;8.30;92.50;;;;;;5024178;28;20490;-82
2021/05/14 02:32:53;;;;;;;19.38;15.00;;;8.30;92.50;;;;;;5035461;28;20032;-81
2021/05/14 02:35:19;;;;;;;20.52;15.25;;;8.30;92.50;;;;;;5045261;28;20357;-82
2021/05/14 02:37:45;;;;;;;17.73;14.68;;;8.30;92.50;;;;;;5023206;28;20481;-82
2021/05/14 02:40:12;;;;;;;17.80;13.88;;;8.30;92.50;;;;;;5037004;28;20036;-82
2021/05/14 02:42:38;;;;;;;19.88;14.13;;;8.30;92.50;;;;;;5039837;28;20036;-82
2021/05/14 02:45:06;;;;;;;19.88;15.23;;;8.30;92.40;;;;;;5039090;28;20391;-81
2021/05/14 02:47:33;;;;;;;18.98;14.48;;;8.30;92.50;;;;;;5038319;28;20037;-81
2021/05/14 02:49:59;;;;;;;19.88;15.63;;;8.30;92.50;;;;;;5017377;28;20062;-81
2021/05/14 02:52:25;;;;;;;19.13;14.95;;;8.30;92.50;;;;;;5036488;28;20558;-82
2021/05/14 02:54:50;;;;;;;23.42;16.92;;;8.30;92.40;;;;;;5020283;28;20036;-83
2021/05/14 02:57:17;;;;;;;23.50;16.50;;;8.30;92.90;;;;;;5041132;28;20052;-82
2021/05/14 02:59:43;;;;;;;22.35;15.30;;;8.30;92.60;;;;;;5031582;28;20032;-81
2021/05/14 03:02:09;;;;;;;22.00;16.85;;;8.30;92.50;;;;;;5037851;28;20534;-82
2021/05/14 03:04:36;;;;;;;24.42;16.27;;;8.40;92.60;;;;;;5051632;28;21643;-83
2021/05/14 03:07:02;;;;;;;22.25;15.90;;;8.40;92.60;;;;;;5035156;28;20036;-82
2021/05/14 03:09:28;;;;;;;22.70;15.60;;;8.40;92.60;;;;;;5044555;28;20509;-81
2021/05/14 03:11:54;;;;;;;22.67;16.48;;;8.40;92.70;;;;;;5046603;28;20485;-82
2021/05/14 03:14:20;;;;;;;24.85;17.10;;;8.40;92.60;;;;;;5019734;28;20072;-82
2021/05/14 03:16:46;;;;;;;27.73;18.30;;;8.40;92.70;;;;;;5020482;28;20033;-82
2021/05/14 03:19:15;;;;;;;27.08;18.67;;;8.40;92.60;;;;;;5041844;28;20032;-82
2021/05/14 03:21:42;;;;;;;28.08;18.48;;;8.40;92.60;;;;;;5058336;28;20155;-83
2021/05/14 03:24:08;;;;;;;25.73;17.13;;;8.40;92.60;;;;;;5047651;28;20435;-81
2021/05/14 03:26:34;;;;;;;26.15;18.33;;;8.30;92.60;;;;;;5025510;28;20045;-82
2021/05/14 03:29:00;;;;;;;30.33;19.48;;;8.40;92.60;;;;;;5019806;28;20033;-80
2021/05/14 03:31:27;;;;;;;30.35;19.92;;;8.40;92.70;;;;;;4983535;28;20131;-82
2021/05/14 03:33:53;;;;;;;29.10;19.13;;;8.40;92.80;;;;;;5007373;28;20048;-82
2021/05/14 03:36:22;;;;;;;31.75;20.60;;;8.40;92.70;;;;;;5025963;28;20037;-82
2021/05/14 03:38:49;;;;;;;33.05;21.60;;;8.40;92.80;;;;;;5032428;28;20037;-79
2021/05/14 03:41:30;;;;;;;32.35;20.15;;;8.40;92.80;;;;;;5040510;28;20039;-81
2021/05/14 03:43:57;;;;;;;36.95;21.83;;;8.40;92.90;;;;;;5045491;28;20573;-81
2021/05/14 03:46:26;;;;;;;31.48;21.40;;;8.40;92.80;;;;;;5044904;28;21265;-81
2021/05/14 03:48:52;;;;;;;28.45;19.27;;;8.40;92.80;;;;;;5050956;28;20037;-81
2021/05/14 03:51:18;;;;;;;27.90;20.17;;;8.40;92.80;;;;;;5036902;28;20395;-80
2021/05/14 03:53:44;;;;;;;28.70;20.15;;;8.40;92.80;;;;;;5037729;28;20033;-80
2021/05/14 03:56:09;;;;;;;32.60;20.00;;;8.40;92.80;;;;;;5063410;28;20434;-80
2021/05/14 03:58:35;;;;;;;29.73;19.42;;;8.40;92.70;;;;;;5052584;28;20048;-81
2021/05/14 04:01:01;;;;;;;32.90;20.17;;;8.40;92.70;;;;;;5038489;28;20069;-83
2021/05/14 04:03:27;;;;;;;31.63;20.27;;;8.40;92.70;;;;;;5015528;28;20071;-82
2021/05/14 04:05:53;;;;;;;28.95;19.83;;;8.40;92.70;;;;;;5026067;28;20041;-82
2021/05/14 04:08:19;;;;;;;32.78;20.90;;;8.40;92.70;;;;;;5032578;28;20147;-80
2021/05/14 04:16:14;;;;;;;36.35;21.48;;;8.40;92.80;;;;;;5049807;28;20396;-82
2021/05/14 04:18:40;;;;;;;36.85;22.02;;;8.50;92.80;;;;;;5039806;28;20040;-83
2021/05/14 04:21:06;;;;;;;37.30;21.73;;;8.50;92.80;;;;;;5026296;28;20649;-82
2021/05/14 04:23:36;;;;;;;34.15;21.75;;;8.50;93.00;;;;;;5007644;28;20033;-78
2021/05/14 04:26:02;;;;;;;35.20;20.63;;;8.40;93.20;;;;;;5042667;28;20102;-80
2021/05/14 04:28:28;;;;;;;33.30;19.20;;;8.50;93.30;;;;;;5044778;28;20037;-79
2021/05/14 04:30:53;;;;;;;33.92;19.55;;;8.40;93.20;;;;;;5028439;28;20051;-82
2021/05/14 04:33:19;;;;;;;31.45;19.35;;;8.40;93.40;;;;;;5044522;28;20029;-82
2021/05/14 04:35:45;;;;;;;30.40;18.60;;;8.50;93.40;;;;;;5044208;28;20556;-81
2021/05/14 04:38:11;;;;;;;31.10;19.40;;;8.50;93.50;;;;;;5032624;28;20503;-82
2021/05/14 04:40:37;;;;;;;29.58;19.20;;;8.50;93.40;;;;;;5047325;28;20520;-80
2021/05/14 04:43:03;;;;;;;28.70;18.20;;;8.50;93.90;;;;;;5025675;28;20467;-82
2021/05/14 04:45:30;;;;;;;27.85;18.02;;;8.50;93.40;;;;;;5036503;28;20658;-79
2021/05/14 04:47:57;;;;;;;28.80;17.63;;;8.50;93.40;;;;;;5038193;28;20094;-82
2021/05/14 04:50:23;;;;;;;25.63;16.73;;;8.50;93.30;;;;;;5033689;28;20029;-83
2021/05/14 04:53:06;;;;;;;21.60;14.82;;;8.50;93.20;;;;;;5008829;28;20055;-81
2021/05/14 04:55:33;;;;;;;19.08;13.60;;;8.60;93.20;;;;;;5044743;28;20120;-81
2021/05/14 04:57:59;;;;;;;19.30;13.50;;;8.60;93.10;;;;;;5031662;28;20033;-82
2021/05/14 05:00:25;;;;;;;21.50;13.07;;;8.60;93.10;;;;;;5021302;28;20036;-81
2021/05/14 05:02:51;;;;;;;18.85;11.77;;;8.60;93.00;;;;;;5051501;28;20033;-80
2021/05/14 05:05:17;;;;;;;18.60;12.70;;;8.60;92.90;;;;;;5039550;28;20435;-82
2021/05/14 05:07:43;;;;;;;17.67;12.15;;;8.60;92.90;;;;;;5039011;28;20140;-80
2021/05/14 05:10:09;;;;;;;17.92;12.35;;;8.70;92.80;;;;;;5027785;28;20144;-80
2021/05/14 05:12:35;;;;;;;20.65;12.00;;;8.70;92.80;;;;;;5044913;28;20388;-81
2021/05/14 05:15:01;;;;;;;21.05;12.20;;;8.70;92.70;;;;;;5027574;28;20036;-80
2021/05/14 05:17:29;;;;;;;18.38;10.85;;;8.70;92.60;;;;;;5035941;28;20068;-79
2021/05/14 05:19:55;;;;;;;16.95;11.65;;;8.70;92.90;;;;;;5028967;28;20064;-79
2021/05/14 05:22:22;;;;;;;15.27;10.45;;;8.80;92.60;;;;;;5021141;28;20060;-81
2021/05/14 05:24:48;;;;;;;19.10;11.25;;;8.80;92.50;;;;;;5027271;28;20041;-81
2021/05/14 05:27:14;;;;;;;15.05;10.63;;;8.80;92.50;;;;;;5035758;28;20040;-80
2021/05/14 05:29:40;;;;;;;14.32;9.82;;;8.80;92.50;;;;;;5019650;28;20073;-82
2021/05/14 05:32:06;;;;;;;20.45;10.30;;;8.80;92.40;;;;;;5038939;28;20691;-81
2021/05/14 05:34:32;;;;;;;17.23;9.05;;;8.80;92.30;;;;;;5022031;28;20029;-79
2021/05/14 05:36:58;;;;;;;16.05;8.98;;;8.80;92.10;;;;;;5047217;28;20025;-81
2021/05/14 05:39:24;;;;;;;14.60;7.22;;;8.80;92.10;;;;;;5041652;28;20345;-82
2021/05/14 05:41:50;;;;;;;15.98;6.90;;;8.80;92.00;;;;;;5028792;28;20474;-83
2021/05/14 05:44:16;;;;;;;17.30;7.63;;;8.80;92.00;;;;;;5043636;28;20523;-81
2021/05/14 05:46:42;;;;;;;11.48;6.03;;;8.80;91.90;;;;;;5023350;28;20143;-82
2021/05/14 05:49:08;;;;;;;11.68;6.30;;;8.80;91.80;;;;;;5036925;28;20098;-82
2021/05/14 05:51:34;;;;;;;10.88;6.20;;;8.80;91.80;;;;;;5025199;28;20036;-83
2021/05/14 05:54:01;;;;;;;13.85;5.85;;;8.80;91.90;;;;;;5034859;28;20048;-82
2021/05/14 05:56:27;;;;;;;12.60;5.93;;;8.90;91.80;;;;;;5037537;28;20055;-82
2021/05/14 05:58:56;;;;;;;11.88;6.10;;;8.90;91.80;;;;;;5008281;28;20041;-80
2021/05/14 06:01:21;;;;;;;12.95;5.97;;;8.90;91.60;;;;;;5037501;28;20064;-84
2021/05/14 06:03:48;;;;;;;11.77;5.35;;;9.00;91.60;;;;;;5020224;28;20103;-78
2021/05/14 06:06:15;;;;;;;12.20;5.45;;;9.00;91.50;;;;;;5039523;28;20051;-82
2021/05/14 06:08:41;;;;;;;13.90;5.97;;;9.00;91.40;;;;;;5037198;28;20143;-82
2021/05/14 06:11:07;;;;;;;12.40;5.57;;;9.00;91.40;;;;;;5023669;28;20029;-81
2021/05/14 06:13:34;;;;;;;14.55;5.55;;;9.10;91.30;;;;;;5043972;28;20033;-84
2021/05/14 06:16:02;;;;;;;17.02;6.13;;;9.20;91.30;;;;;;5028202;28;20762;-87
2021/05/14 06:18:35;;;;;;;10.70;5.68;;;9.20;91.10;;;;;;5037389;28;20041;-80
2021/05/14 06:21:01;;;;;;;14.30;5.15;;;9.20;91.10;;;;;;5032709;28;20045;-83
2021/05/14 06:23:27;;;;;;;9.77;5.38;;;9.20;91.00;;;;;;5040356;28;20106;-83
2021/05/14 06:25:53;;;;;;;15.98;6.53;;;9.30;91.00;;;;;;5024004;28;20134;-86
2021/05/14 06:28:23;;;;;;;16.35;5.90;;;9.30;91.00;;;;;;5027214;28;20516;-81
2021/05/14 06:30:52;;;;;;;12.15;5.90;;;9.30;91.00;;;;;;5048145;28;20035;-82
2021/05/14 06:33:18;;;;;;;19.75;6.10;;;9.40;90.80;;;;;;5047443;28;20029;-83
2021/05/14 06:35:46;;;;;;;11.35;5.97;;;9.30;90.80;;;;;;5058272;28;20033;-83
2021/05/14 06:38:12;;;;;;;13.60;5.75;;;9.40;90.80;;;;;;5032060;28;20448;-88
2021/05/14 06:40:38;;;;;;;9.80;5.35;;;9.40;90.70;;;;;;5041922;28;20059;-80
2021/05/14 06:43:04;;;;;;;12.43;5.72;;;9.40;90.80;;;;;;5044070;28;20630;-82
2021/05/14 06:45:30;;;;;;;13.82;5.50;;;9.50;90.80;;;;;;5058278;28;20040;-80
2021/05/14 06:48:08;;;;;;;13.65;5.68;;;9.50;90.80;;;;;;5025022;28;20039;-84
2021/05/14 06:50:34;;;;;;;11.88;5.82;;;9.50;90.70;;;;;;5057360;28;20230;-83
2021/05/14 06:53:04;;;;;;;12.52;5.80;;;9.60;90.60;;;;;;5047721;28;20134;-85
2021/05/14 06:55:32;;;;;;;16.88;7.30;;;9.60;90.60;;;;;;5036628;28;20382;-84
2021/05/14 06:57:58;;;;;;;16.67;6.63;;;9.50;90.50;;;;;;5058230;28;20044;-81
2021/05/14 07:00:24;;;;;;;14.45;7.43;;;9.50;90.40;;;;;;5045724;28;20050;-85
2021/05/14 07:02:50;;;;;;;13.50;6.95;;;9.60;90.80;;;;;;5029458;28;20040;-82
2021/05/14 07:05:17;;;;;;;14.43;6.40;;;9.60;90.50;;;;;;5040726;28;20043;-86
2021/05/14 07:07:44;;;;;;;14.48;6.60;;;9.50;90.50;;;;;;5024110;28;20511;-83
2021/05/14 07:10:23;;;;;;;17.85;7.18;;;9.60;90.50;;;;;;5036382;28;20037;-80
2021/05/14 07:12:50;;;;;;;17.13;7.18;;;9.60;90.50;;;;;;5036520;28;20064;-83
2021/05/14 07:15:16;;;;;;;13.73;6.72;;;9.60;90.50;;;;;;5041266;28;20112;-86
2021/05/14 07:17:42;;;;;;;13.75;6.05;;;9.60;90.50;;;;;;5042082;28;20033;-84
2021/05/14 07:20:09;;;;;;;15.68;7.10;;;9.70;90.80;;;;;;5042721;28;20036;-82
2021/05/14 07:22:37;;;;;;;16.60;7.70;;;9.70;90.50;;;;;;5043289;28;20475;-85
2021/05/14 07:25:06;;;;;;;15.68;7.15;;;9.70;90.50;;;;;;5044278;28;20500;-84
2021/05/14 07:27:33;;;;;;;16.40;7.20;;;9.70;90.50;;;;;;5042016;28;20048;-85
2021/05/14 07:30:00;;;;;;;13.98;6.75;;;9.80;90.40;;;;;;5040443;28;20029;-87
2021/05/14 07:32:33;;;;;;;15.23;7.20;;;9.80;90.40;;;;;;5047380;28;20356;-80
2021/05/14 07:34:59;;;;;;;14.15;7.10;;;9.80;90.30;;;;;;5047182;28;20038;-85
2021/05/14 07:37:25;;;;;;;15.77;7.35;;;9.80;90.30;;;;;;5040528;28;20054;-82
2021/05/14 07:39:51;;;;;;;15.85;7.65;;;9.80;90.20;;;;;;5040813;28;20063;-85
2021/05/14 07:42:17;;;;;;;14.50;6.90;;;9.80;90.20;;;;;;5043880;28;20120;-90
2021/05/14 07:44:51;;;;;;;13.38;6.95;;;9.80;90.20;;;;;;5035637;28;20040;-82
2021/05/14 07:47:17;;;;;;;16.73;8.00;;;9.80;90.20;;;;;;5054538;28;20041;-83
2021/05/14 07:49:43;;;;;;;13.98;6.68;;;9.80;90.10;;;;;;5042303;28;20399;-80
2021/05/14 07:52:10;;;;;;;16.83;7.20;;;9.80;90.10;;;;;;5038668;28;20520;-81
2021/05/14 07:54:36;;;;;;;14.13;7.38;;;9.70;90.10;;;;;;5027923;28;20049;-86
2021/05/14 07:57:02;;;;;;;14.32;7.20;;;9.70;90.10;;;;;;5030729;28;20120;-81
2021/05/14 07:59:29;;;;;;;16.25;6.95;;;9.70;90.10;;;;;;5045487;28;20107;-85
2021/05/14 08:01:54;;;;;;;21.35;8.02;;;9.70;90.10;;;;;;5030238;28;20147;-81
2021/05/14 08:04:21;;;;;;;17.17;7.72;;;9.80;90.20;;;;;;5044351;28;20100;-84
2021/05/14 08:06:46;;;;;;;18.70;8.32;;;9.70;90.00;;;;;;5035413;28;20044;-80
2021/05/14 08:09:19;;;;;;;15.73;8.35;;;9.80;90.00;;;;;;5051370;28;20143;-80
2021/05/14 08:11:50;;;;;;;17.92;7.78;;;9.80;90.10;;;;;;5044922;28;20086;-86
2021/05/14 08:14:17;;;;;;;16.60;7.75;;;9.80;90.10;;;;;;5032296;28;20037;-85
2021/05/14 08:16:43;;;;;;;14.98;8.05;;;9.90;90.20;;;;;;5049976;28;20044;-82
2021/05/14 08:19:11;;;;;;;13.95;7.60;;;9.90;90.10;;;;;;5062451;28;20056;-82
2021/05/14 08:21:47;;;;;;;21.00;8.07;;;9.90;90.00;;;;;;5040009;28;20469;-80
2021/05/14 08:24:14;;;;;;;14.43;7.72;;;9.90;90.00;;;;;;5057516;28;20111;-83
2021/05/14 08:26:41;;;;;;;19.58;8.50;;;10.00;90.00;;;;;;5051608;28;20288;-83
2021/05/14 08:29:08;;;;;;;16.70;8.55;;;10.00;89.90;;;;;;5046654;28;20047;-87
2021/05/14 08:31:38;;;;;;;17.17;8.00;;;10.00;90.00;;;;;;5058732;28;20037;-81
2021/05/14 08:34:05;;;;;;;19.73;8.32;;;10.00;90.00;;;;;;5049478;28;20125;-80
2021/05/14 08:36:31;;;;;;;17.90;8.48;;;10.00;90.00;;;;;;5041571;28;20041;-85
2021/05/14 08:38:56;;;;;;;16.17;7.85;;;10.00;89.80;;;;;;5035831;28;20098;-80
2021/05/14 08:41:24;;;;;;;17.42;8.10;;;10.10;90.20;;;;;;5051342;28;20487;-80
2021/05/14 08:43:53;;;;;;;14.85;7.93;;;10.10;89.90;;;;;;5048408;28;20039;-80
2021/05/14 08:46:23;;;;;;;14.60;7.50;;;10.20;89.80;;;;;;5041993;28;20065;-81
2021/05/14 08:49:06;;;;;;;19.88;7.80;;;10.20;89.60;;;;;;5054691;28;20024;-80
2021/05/14 08:51:36;;;;;;;17.73;7.45;;;10.30;89.40;;;;;;5032514;28;20037;-80
2021/05/14 08:54:05;;;;;;;17.33;7.70;;;10.20;89.30;;;;;;5032608;28;20054;-80
2021/05/14 08:56:35;;;;;;;17.35;7.72;;;10.30;89.40;;;;;;5046714;28;20817;-80
2021/05/14 08:59:01;;;;;;;18.20;7.25;;;10.40;89.30;;;;;;5014706;28;20530;-80
2021/05/14 09:01:29;;;;;;;16.98;7.57;;;10.50;89.30;;;;;;5029120;28;20091;-81
2021/05/14 09:04:01;;;;;;;14.40;7.47;;;10.50;89.00;;;;;;5050165;28;20302;-80
2021/05/14 09:06:35;;;;;;;16.55;7.28;;;10.50;88.90;;;;;;5048408;28;20040;-80
2021/05/14 09:09:18;;;;;;;19.60;7.47;;;10.60;89.00;;;;;;5056859;28;20086;-81
2021/05/14 09:11:54;;;;;;;15.38;6.72;;;10.60;89.10;;;;;;5030642;28;20033;-80
2021/05/14 09:14:42;;;;;;;16.48;7.18;;;10.70;89.10;;;;;;5049668;28;20116;-80
2021/05/14 09:17:09;;;;;;;16.60;6.80;;;10.70;88.60;;;;;;5047241;28;20395;-81
2021/05/14 09:19:43;;;;;;;15.60;6.88;;;10.80;88.80;;;;;;5040121;28;20484;-80
2021/05/14 09:22:18;;;;;;;12.05;6.75;;;10.90;88.70;;;;;;5053250;28;20118;-80
2021/05/14 09:24:55;;;;;;;18.98;7.30;;;10.90;88.30;;;;;;5026130;28;20576;-80
2021/05/14 09:27:42;;;;;;;15.68;7.72;;;10.90;88.30;;;;;;5062323;28;20043;-80
2021/05/14 09:30:11;;;;;;;16.42;6.80;;;11.00;88.20;;;;;;5063193;28;20088;-80
2021/05/14 09:32:38;;;;;;;18.27;7.32;;;11.00;88.10;;;;;;5017081;28;20045;-80
2021/05/14 09:35:06;;;;;;;15.52;8.05;;;11.10;88.40;;;;;;5013962;28;20036;-80
2021/05/14 09:37:32;;;;;;;14.60;7.22;;;11.10;87.50;;;;;;5048697;28;20045;-80
2021/05/14 09:40:18;;;;;;;15.50;7.57;;;11.10;87.30;;;;;;5042918;28;20038;-80
2021/05/14 09:42:46;;;;;;;19.45;7.30;;;11.10;87.40;;;;;;5059862;28;20029;-80
2021/05/14 09:45:26;;;;;;;20.00;7.57;;;11.00;87.50;;;;;;5029277;28;20044;-80
2021/05/14 09:48:15;;;;;;;16.42;6.90;;;11.10;87.40;;;;;;5042524;28;20090;-80
2021/05/14 09:50:49;;;;;;;14.10;7.10;;;11.00;87.50;;;;;;5039707;28;20032;-80
2021/05/14 09:53:19;;;;;;;;;;;11.00;87.80;;;;;;5052771;28;20467;-81
2021/05/14 09:56:02;;;;;;;20.38;7.68;;;11.00;87.50;;;;;;5036047;28;19921;-80
2021/05/14 09:58:30;;;;;;;15.85;7.32;;;11.00;87.70;;;;;;5040953;28;20045;-81
2021/05/14 10:00:57;;;;;;;17.25;8.00;;;11.00;87.60;;;;;;5048896;28;20036;-80
2021/05/14 10:03:30;;;;;;;23.15;8.20;;;10.90;87.60;;;;;;5031614;28;20044;-81
2021/05/14 10:05:57;;;;;;;17.48;8.90;;;11.00;88.00;;;;;;5024828;28;20045;-80
2021/05/14 10:08:31;;;;;;;20.70;9.13;;;11.00;88.10;;;;;;5017912;28;20029;-81
2021/05/14 10:11:08;;;;;;;19.30;8.02;;;11.00;88.00;;;;;;5022821;28;20037;-81
2021/05/14 10:13:36;;;;;;;21.58;9.05;;;11.00;88.10;;;;;;5037230;28;20037;-81
2021/05/14 10:16:04;;;;;;;21.75;9.80;;;11.00;88.10;;;;;;5037191;28;20274;-80
2021/05/14 10:18:30;;;;;;;19.15;9.55;;;11.00;87.90;;;;;;5046523;28;20064;-80
2021/05/14 10:21:06;;;;;;;20.02;9.13;;;11.00;87.60;;;;;;5045612;28;20048;-81
2021/05/14 10:23:43;;;;;;;23.23;9.25;;;11.00;87.80;;;;;;5054674;28;20090;-81
2021/05/14 10:26:10;;;;;;;19.13;9.65;;;11.00;88.00;;;;;;5045152;28;20029;-81
2021/05/14 10:28:44;;;;;;;20.52;9.68;;;11.10;88.10;;;;;;5051736;28;20032;-80
2021/05/14 10:31:14;;;;;;;21.10;9.13;;;11.10;88.00;;;;;;5056052;28;20481;-82
2021/05/14 10:33:53;;;;;;;20.95;9.60;;;11.20;87.70;;;;;;5039497;28;20030;-80
2021/05/14 10:36:27;;;;;;;22.05;9.65;;;11.30;87.40;;;;;;5033939;28;20037;-80
2021/05/14 10:39:11;;;;;;;19.00;9.30;;;11.40;87.20;;;;;;5032110;28;20035;-80
2021/05/14 10:41:47;;;;;;;15.45;8.90;;;11.40;86.60;;;;;;5048729;28;20487;-80
2021/05/14 10:44:14;;;;;;;19.35;9.20;;;11.50;86.50;;;;;;5052891;28;20368;-82
2021/05/14 10:46:46;;;;;;;19.35;9.75;;;11.60;86.60;;;;;;5029778;28;21706;-80
2021/05/14 10:49:16;;;;;;;22.98;9.65;;;11.70;86.60;;;;;;5027682;28;20429;-80
2021/05/14 10:51:50;;;;;;;19.90;9.60;;;11.70;85.50;;;;;;5028130;28;20503;-81
2021/05/14 10:54:38;;;;;;;18.70;8.55;;;11.80;85.60;;;;;;5040320;28;20056;-81
2021/05/14 10:57:04;;;;;;;23.38;7.93;;;11.80;84.80;;;;;;5043068;28;20041;-82
2021/05/14 10:59:38;;;;;;;23.95;8.40;;;11.90;84.80;;;;;;5028438;28;20037;-81
2021/05/14 11:02:30;;;;;;;24.40;10.43;;;11.90;84.80;;;;;;5038564;28;20315;-81
2021/05/14 11:05:00;;;;;;;20.40;9.77;;;12.00;84.40;;;;;;5056452;28;20049;-81
2021/05/14 11:07:31;;;;;;;18.35;10.73;;;12.00;84.60;;;;;;5045344;28;20047;-81
2021/05/14 11:10:13;;;;;;;;;;;12.10;84.60;;;;;;5049124;28;20037;-81
2021/05/14 11:12:46;;;;;;;23.40;10.38;;;12.10;84.40;;;;;;5042550;28;19917;-80
2021/05/14 11:15:21;;;;;;;21.77;10.27;;;12.10;84.40;;;;;;5038961;28;20450;-82
2021/05/14 11:18:06;;;;;;;24.65;10.57;;;12.20;83.90;;;;;;5062582;28;20041;-82
2021/05/14 11:20:46;;;;;;;19.45;9.93;;;12.20;83.40;;;;;;5045170;28;20115;-82
2021/05/14 11:23:35;;;;;;;17.70;10.00;;;12.20;83.60;;;;;;5050724;28;20049;-82
2021/05/14 11:26:02;;;;;;;24.90;12.23;;;12.30;83.20;;;;;;5040467;28;20499;-81
2021/05/14 11:28:45;;;;;;;25.67;11.50;;;12.30;83.20;;;;;;5016925;28;20041;-83
2021/05/14 11:31:21;;;;;;;19.83;9.73;;;12.40;83.00;;;;;;5055891;28;20033;-83
2021/05/14 11:33:58;;;;;;;19.52;10.05;;;12.50;82.90;;;;;;5038846;28;20043;-82
2021/05/14 11:36:25;;;;;;;17.50;10.27;;;12.60;82.60;;;;;;5018649;28;20044;-81
2021/05/14 11:38:53;;;;;;;16.67;10.20;;;12.80;82.30;;;;;;5029959;28;20041;-81
2021/05/14 11:41:28;;;;;;;17.95;10.32;;;12.90;81.70;;;;;;5040500;28;20041;-81
2021/05/14 11:44:14;;;;;;;18.92;10.35;;;13.10;81.10;;;;;;5053563;28;20120;-81
2021/05/14 11:46:56;;;;;;;25.83;11.20;;;13.20;80.90;;;;;;5013140;28;20045;-81
2021/05/14 11:49:42;;;;;;;21.33;11.30;;;13.40;81.30;;;;;;5013335;28;20073;-82
2021/05/14 11:52:08;;;;;;;20.10;10.10;;;13.60;81.20;;;;;;5054243;28;20054;-82
2021/05/14 11:55:14;;;;;;;18.10;10.13;;;13.70;80.60;;;;;;5037238;28;20421;-83
2021/05/14 11:57:49;;;;;;;20.92;10.50;;;13.70;79.90;;;;;;5022504;28;20251;-82
2021/05/14 12:00:16;;;;;;;18.63;10.07;;;13.80;79.10;;;;;;5047336;28;20075;-81
2021/05/14 12:02:45;;;;;;;18.77;10.20;;;13.80;78.60;;;;;;5052597;28;20084;-83
2021/05/14 12:05:14;;;;;;;17.75;9.65;;;13.80;78.30;;;;;;5064048;28;20033;-81
2021/05/14 12:07:43;;;;;;;17.38;9.90;;;13.90;78.40;;;;;;5058357;28;20036;-82
2021/05/14 12:10:16;;;;;;;16.02;10.02;;;14.00;77.80;;;;;;5048758;28;20034;-82
2021/05/14 12:12:43;;;;;;;16.98;9.38;;;14.10;77.50;;;;;;5050763;28;20037;-82
2021/05/14 12:15:16;;;;;;;15.05;9.88;;;14.10;77.70;;;;;;5050497;28;20028;-82
2021/05/14 12:17:43;;;;;;;15.00;9.15;;;14.20;77.30;;;;;;5053082;28;20037;-82
2021/05/14 12:20:32;;;;;;;16.48;8.70;;;14.30;77.20;;;;;;5030572;28;20065;-82
2021/05/14 12:23:03;;;;;;;15.20;9.25;;;14.30;76.80;;;;;;5040862;28;20036;-83
2021/05/14 12:25:47;;;;;;;16.73;9.65;;;14.40;76.90;;;;;;5041618;28;20115;-82
2021/05/14 12:28:41;;;;;;;18.23;8.27;;;14.40;76.60;;;;;;5040493;28;20492;-81
2021/05/14 12:31:13;;;;;;;17.30;9.32;;;14.40;76.30;;;;;;5032263;28;20057;-82
2021/05/14 12:33:59;;;;;;;15.82;8.35;;;14.40;75.80;;;;;;5043397;28;20521;-81
2021/05/14 12:36:33;;;;;;;15.55;9.50;;;14.40;75.20;;;;;;5046872;28;20076;-81
2021/05/14 12:39:18;;;;;;;18.45;8.48;;;14.40;75.30;;;;;;5038410;28;20025;-82
2021/05/14 12:41:51;;;;;;;12.32;8.20;;;14.50;74.90;;;;;;5038539;28;20487;-82
2021/05/14 12:44:35;;;;;;;21.60;9.63;;;14.40;74.50;;;;;;5043651;28;20037;-81
2021/05/14 12:47:12;;;;;;;20.23;9.02;;;14.40;74.90;;;;;;5044762;28;20064;-82
2021/05/14 12:49:59;;;;;;;13.52;8.43;;;14.50;74.80;;;;;;5031999;28;20029;-81
2021/05/14 12:52:35;;;;;;;16.95;9.02;;;14.50;74.10;;;;;;5050115;28;20041;-83
2021/05/14 12:55:14;;;;;;;17.73;9.93;;;14.60;73.30;;;;;;5049016;28;20540;-80